sensor_id;sensor_type;location;lat;lon;timestamp;temperature;humidity
16995;DHT22;8614;48.522;9.206;2022-07-23T00:00:12;22.00;99.90
16995;DHT22;8614;48.522;9.206;2022-07-23T00:02:40;21.90;99.90
16995;DHT22;8614;48.522;9.206;2022-07-23T00:05:08;21.90;99.90
16995;DHT22;8614;48.522;9.206;2022-07-23T00:07:35;21.80;99.90
16995;DHT22;8614;48.522;9.206;2022-07-23T00:10:02;21.80;99.90
16995;DHT22;8614;48.522;9.206;2022-07-23T00:12:29;21.70;99.90
16995;DHT22;8614;48.522;9.206;2022-07-23T00:14:56;21.80;99.90
16995;DHT22;8614;48.522;9.206;2022-07-23T00:17:23;21.70;99.90
16995;DHT22;8614;48.522;9.206;2022-07-23T00:19:51;21.80;99.90
16995;DHT22;8614;48.522;9.206;2022-07-23T00:22:19;21.80;99.90
16995;DHT22;8614;48.522;9.206;2022-07-23T00:24:45;21.70;99.90
16995;DHT22;8614;48.522;9.206;2022-07-23T00:27:12;21.70;99.90
16995;DHT22;8614;48.522;9.206;2022-07-23T00:29:39;21.70;99.90
16995;DHT22;8614;48.522;9.206;2022-07-23T00:32:07;21.70;99.90
16995;DHT22;8614;48.522;9.206;2022-07-23T00:34:33;21.70;99.90
16995;DHT22;8614;48.522;9.206;2022-07-23T00:37:02;21.60;99.90
16995;DHT22;8614;48.522;9.206;2022-07-23T00:39:28;21.60;99.90
16995;DHT22;8614;48.522;9.206;2022-07-23T00:41:55;21.60;99.90
16995;DHT22;8614;48.522;9.206;2022-07-23T00:44:24;21.50;99.90
16995;DHT22;8614;48.522;9.206;2022-07-23T00:46:53;21.50;99.90
16995;DHT22;8614;48.522;9.206;2022-07-23T00:49:20;21.50;99.90
16995;DHT22;8614;48.522;9.206;2022-07-23T00:51:48;21.50;99.90
16995;DHT22;8614;48.522;9.206;2022-07-23T00:54:17;21.50;99.90
16995;DHT22;8614;48.522;9.206;2022-07-23T00:56:45;21.40;99.90
16995;DHT22;8614;48.522;9.206;2022-07-23T00:59:13;21.40;99.90
16995;DHT22;8614;48.522;9.206;2022-07-23T01:01:40;21.40;99.90
16995;DHT22;8614;48.522;9.206;2022-07-23T01:04:09;21.40;99.90
16995;DHT22;8614;48.522;9.206;2022-07-23T01:06:38;21.40;99.90
16995;DHT22;8614;48.522;9.206;2022-07-23T01:09:05;21.40;99.90
16995;DHT22;8614;48.522;9.206;2022-07-23T01:11:35;21.30;99.90
16995;DHT22;8614;48.522;9.206;2022-07-23T01:14:12;21.40;99.90
16995;DHT22;8614;48.522;9.206;2022-07-23T01:16:40;21.30;99.90
16995;DHT22;8614;48.522;9.206;2022-07-23T01:19:07;21.30;99.90
16995;DHT22;8614;48.522;9.206;2022-07-23T01:21:39;21.30;99.90
16995;DHT22;8614;48.522;9.206;2022-07-23T01:24:08;21.30;99.90
16995;DHT22;8614;48.522;9.206;2022-07-23T01:26:40;21.30;99.90
16995;DHT22;8614;48.522;9.206;2022-07-23T01:29:07;21.30;99.90
16995;DHT22;8614;48.522;9.206;2022-07-23T01:31:35;21.30;99.90
16995;DHT22;8614;48.522;9.206;2022-07-23T01:34:02;21.30;99.90
16995;DHT22;8614;48.522;9.206;2022-07-23T01:36:29;21.30;99.90
16995;DHT22;8614;48.522;9.206;2022-07-23T01:38:56;21.20;99.90
16995;DHT22;8614;48.522;9.206;2022-07-23T01:41:25;21.20;99.90
16995;DHT22;8614;48.522;9.206;2022-07-23T01:43:52;21.10;99.90
16995;DHT22;8614;48.522;9.206;2022-07-23T01:46:18;21.10;99.90
16995;DHT22;8614;48.522;9.206;2022-07-23T01:48:48;21.10;99.90
16995;DHT22;8614;48.522;9.206;2022-07-23T01:51:32;21.10;99.90
16995;DHT22;8614;48.522;9.206;2022-07-23T01:54:09;21.10;99.90
16995;DHT22;8614;48.522;9.206;2022-07-23T01:56:37;21.10;99.90
16995;DHT22;8614;48.522;9.206;2022-07-23T01:59:04;21.10;99.90
16995;DHT22;8614;48.522;9.206;2022-07-23T02:01:31;21.10;99.90
16995;DHT22;8614;48.522;9.206;2022-07-23T02:03:58;21.10;99.90
16995;DHT22;8614;48.522;9.206;2022-07-23T02:06:25;21.00;99.90
16995;DHT22;8614;48.522;9.206;2022-07-23T02:08:52;21.00;99.90
16995;DHT22;8614;48.522;9.206;2022-07-23T02:11:21;21.00;99.90
16995;DHT22;8614;48.522;9.206;2022-07-23T02:13:49;21.10;99.90
16995;DHT22;8614;48.522;9.206;2022-07-23T02:16:16;21.00;99.90
16995;DHT22;8614;48.522;9.206;2022-07-23T02:18:43;20.90;99.90
16995;DHT22;8614;48.522;9.206;2022-07-23T02:21:10;20.90;99.90
16995;DHT22;8614;48.522;9.206;2022-07-23T02:23:37;20.90;99.90
16995;DHT22;8614;48.522;9.206;2022-07-23T02:26:04;20.80;99.90
16995;DHT22;8614;48.522;9.206;2022-07-23T02:28:31;20.80;99.90
16995;DHT22;8614;48.522;9.206;2022-07-23T02:30:59;20.70;99.90
16995;DHT22;8614;48.522;9.206;2022-07-23T02:33:26;20.70;99.90
16995;DHT22;8614;48.522;9.206;2022-07-23T02:35:53;20.70;99.90
16995;DHT22;8614;48.522;9.206;2022-07-23T02:38:22;20.70;99.90
16995;DHT22;8614;48.522;9.206;2022-07-23T02:40:48;20.60;99.90
16995;DHT22;8614;48.522;9.206;2022-07-23T02:43:17;20.60;99.90
16995;DHT22;8614;48.522;9.206;2022-07-23T02:45:44;20.60;99.90
16995;DHT22;8614;48.522;9.206;2022-07-23T02:48:13;20.60;99.90
16995;DHT22;8614;48.522;9.206;2022-07-23T02:50:42;20.50;99.90
16995;DHT22;8614;48.522;9.206;2022-07-23T02:53:12;20.50;99.90
16995;DHT22;8614;48.522;9.206;2022-07-23T02:55:40;20.50;99.90
16995;DHT22;8614;48.522;9.206;2022-07-23T02:58:07;20.40;99.90
16995;DHT22;8614;48.522;9.206;2022-07-23T03:00:34;20.40;99.90
16995;DHT22;8614;48.522;9.206;2022-07-23T03:03:01;20.40;99.90
16995;DHT22;8614;48.522;9.206;2022-07-23T03:05:29;20.40;99.90
16995;DHT22;8614;48.522;9.206;2022-07-23T03:07:56;20.40;99.90
16995;DHT22;8614;48.522;9.206;2022-07-23T03:10:23;20.40;99.90
16995;DHT22;8614;48.522;9.206;2022-07-23T03:12:50;20.50;99.90
16995;DHT22;8614;48.522;9.206;2022-07-23T03:15:17;20.40;99.90
16995;DHT22;8614;48.522;9.206;2022-07-23T03:17:44;20.40;99.90
16995;DHT22;8614;48.522;9.206;2022-07-23T03:20:11;20.40;99.90
16995;DHT22;8614;48.522;9.206;2022-07-23T03:22:39;20.40;99.90
16995;DHT22;8614;48.522;9.206;2022-07-23T03:25:07;20.40;99.90
16995;DHT22;8614;48.522;9.206;2022-07-23T03:27:34;20.40;99.90
16995;DHT22;8614;48.522;9.206;2022-07-23T03:30:02;20.40;99.90
16995;DHT22;8614;48.522;9.206;2022-07-23T03:32:29;20.30;99.90
16995;DHT22;8614;48.522;9.206;2022-07-23T03:34:57;20.30;99.90
16995;DHT22;8614;48.522;9.206;2022-07-23T03:37:24;20.30;99.90
16995;DHT22;8614;48.522;9.206;2022-07-23T03:39:52;20.20;99.90
16995;DHT22;8614;48.522;9.206;2022-07-23T03:42:19;20.20;99.90
16995;DHT22;8614;48.522;9.206;2022-07-23T03:44:46;20.10;99.90
16995;DHT22;8614;48.522;9.206;2022-07-23T03:47:13;20.10;99.90
16995;DHT22;8614;48.522;9.206;2022-07-23T03:49:41;20.00;99.90
16995;DHT22;8614;48.522;9.206;2022-07-23T03:52:08;20.00;99.90
16995;DHT22;8614;48.522;9.206;2022-07-23T03:54:35;19.90;99.90
16995;DHT22;8614;48.522;9.206;2022-07-23T03:57:03;19.90;99.90
16995;DHT22;8614;48.522;9.206;2022-07-23T03:59:30;19.90;99.90
16995;DHT22;8614;48.522;9.206;2022-07-23T04:01:57;19.80;99.90
16995;DHT22;8614;48.522;9.206;2022-07-23T04:04:24;19.90;99.90
16995;DHT22;8614;48.522;9.206;2022-07-23T04:06:52;19.90;99.90
16995;DHT22;8614;48.522;9.206;2022-07-23T04:09:19;19.90;99.90
16995;DHT22;8614;48.522;9.206;2022-07-23T04:11:45;20.00;99.90
16995;DHT22;8614;48.522;9.206;2022-07-23T04:14:13;20.10;99.90
16995;DHT22;8614;48.522;9.206;2022-07-23T04:16:40;20.10;99.90
16995;DHT22;8614;48.522;9.206;2022-07-23T04:19:09;20.20;99.90
16995;DHT22;8614;48.522;9.206;2022-07-23T04:21:50;20.30;99.90
16995;DHT22;8614;48.522;9.206;2022-07-23T04:24:17;20.30;99.90
16995;DHT22;8614;48.522;9.206;2022-07-23T04:26:44;20.40;99.90
16995;DHT22;8614;48.522;9.206;2022-07-23T04:29:11;20.40;99.90
16995;DHT22;8614;48.522;9.206;2022-07-23T04:31:39;20.50;99.90
16995;DHT22;8614;48.522;9.206;2022-07-23T04:34:07;20.40;99.90
16995;DHT22;8614;48.522;9.206;2022-07-23T04:36:34;20.50;99.90
16995;DHT22;8614;48.522;9.206;2022-07-23T04:39:01;20.50;99.90
16995;DHT22;8614;48.522;9.206;2022-07-23T04:41:28;20.50;99.90
16995;DHT22;8614;48.522;9.206;2022-07-23T04:43:55;20.60;99.90
16995;DHT22;8614;48.522;9.206;2022-07-23T04:46:21;20.70;99.90
16995;DHT22;8614;48.522;9.206;2022-07-23T04:48:51;20.80;99.90
16995;DHT22;8614;48.522;9.206;2022-07-23T04:51:18;20.90;99.90
16995;DHT22;8614;48.522;9.206;2022-07-23T04:53:45;21.10;99.90
16995;DHT22;8614;48.522;9.206;2022-07-23T04:56:12;21.20;99.90
16995;DHT22;8614;48.522;9.206;2022-07-23T04:58:39;21.30;99.90
16995;DHT22;8614;48.522;9.206;2022-07-23T05:01:06;21.50;99.90
16995;DHT22;8614;48.522;9.206;2022-07-23T05:03:35;21.80;99.90
16995;DHT22;8614;48.522;9.206;2022-07-23T05:06:03;22.00;99.90
16995;DHT22;8614;48.522;9.206;2022-07-23T05:08:30;22.00;99.90
16995;DHT22;8614;48.522;9.206;2022-07-23T05:10:58;22.00;99.90
16995;DHT22;8614;48.522;9.206;2022-07-23T05:13:25;21.90;99.90
16995;DHT22;8614;48.522;9.206;2022-07-23T05:15:53;21.80;99.90
16995;DHT22;8614;48.522;9.206;2022-07-23T05:18:20;21.80;99.90
16995;DHT22;8614;48.522;9.206;2022-07-23T05:20:48;21.80;99.90
16995;DHT22;8614;48.522;9.206;2022-07-23T05:23:21;21.70;99.90
16995;DHT22;8614;48.522;9.206;2022-07-23T05:25:48;21.70;99.90
16995;DHT22;8614;48.522;9.206;2022-07-23T05:28:16;21.80;99.90
16995;DHT22;8614;48.522;9.206;2022-07-23T05:30:43;21.80;99.90
16995;DHT22;8614;48.522;9.206;2022-07-23T05:33:13;21.80;99.90
16995;DHT22;8614;48.522;9.206;2022-07-23T05:35:41;21.80;99.90
16995;DHT22;8614;48.522;9.206;2022-07-23T05:38:29;21.80;99.90
16995;DHT22;8614;48.522;9.206;2022-07-23T05:40:59;21.80;99.90
16995;DHT22;8614;48.522;9.206;2022-07-23T05:43:27;21.80;99.90
16995;DHT22;8614;48.522;9.206;2022-07-23T05:45:55;21.80;99.90
16995;DHT22;8614;48.522;9.206;2022-07-23T05:48:23;21.90;99.90
16995;DHT22;8614;48.522;9.206;2022-07-23T05:51:01;22.00;99.90
16995;DHT22;8614;48.522;9.206;2022-07-23T05:53:32;22.20;99.90
16995;DHT22;8614;48.522;9.206;2022-07-23T05:56:02;22.50;99.90
16995;DHT22;8614;48.522;9.206;2022-07-23T05:58:30;22.70;99.90
16995;DHT22;8614;48.522;9.206;2022-07-23T06:00:57;23.30;99.90
16995;DHT22;8614;48.522;9.206;2022-07-23T06:03:24;23.80;99.90
16995;DHT22;8614;48.522;9.206;2022-07-23T06:05:51;24.50;99.90
16995;DHT22;8614;48.522;9.206;2022-07-23T06:08:18;25.10;99.90
16995;DHT22;8614;48.522;9.206;2022-07-23T06:10:46;25.40;99.90
16995;DHT22;8614;48.522;9.206;2022-07-23T06:13:13;25.50;99.90
16995;DHT22;8614;48.522;9.206;2022-07-23T06:15:40;25.60;99.90
16995;DHT22;8614;48.522;9.206;2022-07-23T06:18:07;25.80;99.90
16995;DHT22;8614;48.522;9.206;2022-07-23T06:20:34;26.20;99.90
16995;DHT22;8614;48.522;9.206;2022-07-23T06:23:01;26.30;99.90
16995;DHT22;8614;48.522;9.206;2022-07-23T06:25:28;26.20;99.90
16995;DHT22;8614;48.522;9.206;2022-07-23T06:27:56;26.20;99.90
16995;DHT22;8614;48.522;9.206;2022-07-23T06:30:26;26.20;99.90
16995;DHT22;8614;48.522;9.206;2022-07-23T06:32:52;26.20;99.90
16995;DHT22;8614;48.522;9.206;2022-07-23T06:35:19;26.40;99.90
16995;DHT22;8614;48.522;9.206;2022-07-23T06:37:46;26.70;99.90
16995;DHT22;8614;48.522;9.206;2022-07-23T06:40:13;27.00;99.90
16995;DHT22;8614;48.522;9.206;2022-07-23T06:42:40;27.50;99.90
16995;DHT22;8614;48.522;9.206;2022-07-23T06:45:15;27.80;99.90
16995;DHT22;8614;48.522;9.206;2022-07-23T06:47:42;28.10;99.90
16995;DHT22;8614;48.522;9.206;2022-07-23T06:50:09;28.50;99.90
16995;DHT22;8614;48.522;9.206;2022-07-23T06:52:36;28.70;99.90
16995;DHT22;8614;48.522;9.206;2022-07-23T06:55:05;28.80;99.90
16995;DHT22;8614;48.522;9.206;2022-07-23T06:57:32;29.10;99.90
16995;DHT22;8614;48.522;9.206;2022-07-23T06:59:59;29.20;99.90
16995;DHT22;8614;48.522;9.206;2022-07-23T07:02:27;29.50;99.90
16995;DHT22;8614;48.522;9.206;2022-07-23T07:04:55;29.60;99.90
16995;DHT22;8614;48.522;9.206;2022-07-23T07:07:22;29.50;99.90
16995;DHT22;8614;48.522;9.206;2022-07-23T07:09:49;29.70;99.90
16995;DHT22;8614;48.522;9.206;2022-07-23T07:12:15;29.90;99.90
16995;DHT22;8614;48.522;9.206;2022-07-23T07:14:42;30.10;99.90
16995;DHT22;8614;48.522;9.206;2022-07-23T07:17:09;30.50;99.90
16995;DHT22;8614;48.522;9.206;2022-07-23T07:19:37;30.80;99.90
16995;DHT22;8614;48.522;9.206;2022-07-23T07:22:04;30.40;99.90
16995;DHT22;8614;48.522;9.206;2022-07-23T07:24:31;30.00;99.90
16995;DHT22;8614;48.522;9.206;2022-07-23T07:26:58;29.60;99.90
16995;DHT22;8614;48.522;9.206;2022-07-23T07:29:25;28.80;99.90
16995;DHT22;8614;48.522;9.206;2022-07-23T07:31:52;28.40;99.90
16995;DHT22;8614;48.522;9.206;2022-07-23T07:34:19;28.10;99.90
16995;DHT22;8614;48.522;9.206;2022-07-23T07:36:47;27.70;99.90
16995;DHT22;8614;48.522;9.206;2022-07-23T07:39:15;28.00;99.90
16995;DHT22;8614;48.522;9.206;2022-07-23T07:41:42;28.20;99.90
16995;DHT22;8614;48.522;9.206;2022-07-23T07:44:09;28.10;99.90
16995;DHT22;8614;48.522;9.206;2022-07-23T07:46:35;28.00;99.90
16995;DHT22;8614;48.522;9.206;2022-07-23T07:49:02;27.90;99.90
16995;DHT22;8614;48.522;9.206;2022-07-23T07:51:29;27.80;99.90
16995;DHT22;8614;48.522;9.206;2022-07-23T07:53:57;27.60;99.90
16995;DHT22;8614;48.522;9.206;2022-07-23T07:56:24;27.40;99.90
16995;DHT22;8614;48.522;9.206;2022-07-23T07:58:51;27.60;99.90
16995;DHT22;8614;48.522;9.206;2022-07-23T08:01:17;27.60;99.90
16995;DHT22;8614;48.522;9.206;2022-07-23T08:03:45;27.60;99.90
16995;DHT22;8614;48.522;9.206;2022-07-23T08:06:12;27.60;99.90
16995;DHT22;8614;48.522;9.206;2022-07-23T08:08:39;27.60;99.90
16995;DHT22;8614;48.522;9.206;2022-07-23T08:11:07;27.70;99.90
16995;DHT22;8614;48.522;9.206;2022-07-23T08:13:34;28.00;99.90
16995;DHT22;8614;48.522;9.206;2022-07-23T08:16:01;28.60;99.90
16995;DHT22;8614;48.522;9.206;2022-07-23T08:18:28;28.70;99.90
16995;DHT22;8614;48.522;9.206;2022-07-23T08:20:55;28.50;99.90
16995;DHT22;8614;48.522;9.206;2022-07-23T08:23:21;28.40;99.90
16995;DHT22;8614;48.522;9.206;2022-07-23T08:25:49;28.20;99.90
16995;DHT22;8614;48.522;9.206;2022-07-23T08:28:17;28.20;99.90
16995;DHT22;8614;48.522;9.206;2022-07-23T08:30:44;28.20;99.90
16995;DHT22;8614;48.522;9.206;2022-07-23T08:33:13;28.40;99.90
16995;DHT22;8614;48.522;9.206;2022-07-23T08:35:41;28.70;99.90
16995;DHT22;8614;48.522;9.206;2022-07-23T08:38:10;28.90;99.90
16995;DHT22;8614;48.522;9.206;2022-07-23T08:40:39;28.90;99.90
16995;DHT22;8614;48.522;9.206;2022-07-23T08:43:07;29.10;99.90
16995;DHT22;8614;48.522;9.206;2022-07-23T08:45:38;29.30;99.90
16995;DHT22;8614;48.522;9.206;2022-07-23T08:48:08;29.60;99.90
16995;DHT22;8614;48.522;9.206;2022-07-23T08:50:35;29.70;99.90
16995;DHT22;8614;48.522;9.206;2022-07-23T08:53:06;29.80;99.90
16995;DHT22;8614;48.522;9.206;2022-07-23T08:55:34;30.00;99.90
16995;DHT22;8614;48.522;9.206;2022-07-23T08:58:01;30.30;99.90
16995;DHT22;8614;48.522;9.206;2022-07-23T09:00:28;30.20;99.90
16995;DHT22;8614;48.522;9.206;2022-07-23T09:02:56;30.20;99.90
16995;DHT22;8614;48.522;9.206;2022-07-23T09:05:24;30.20;99.90
16995;DHT22;8614;48.522;9.206;2022-07-23T09:08:11;30.10;99.90
16995;DHT22;8614;48.522;9.206;2022-07-23T09:10:48;29.60;99.90
16995;DHT22;8614;48.522;9.206;2022-07-23T09:13:42;29.70;99.90
16995;DHT22;8614;48.522;9.206;2022-07-23T09:16:14;29.80;99.90
16995;DHT22;8614;48.522;9.206;2022-07-23T09:18:45;29.60;99.90
16995;DHT22;8614;48.522;9.206;2022-07-23T09:21:31;29.50;99.90
16995;DHT22;8614;48.522;9.206;2022-07-23T09:23:59;29.90;99.90
16995;DHT22;8614;48.522;9.206;2022-07-23T09:26:33;30.00;99.90
16995;DHT22;8614;48.522;9.206;2022-07-23T09:29:07;29.90;99.90
16995;DHT22;8614;48.522;9.206;2022-07-23T09:31:43;30.10;99.90
16995;DHT22;8614;48.522;9.206;2022-07-23T09:34:15;29.80;99.90
16995;DHT22;8614;48.522;9.206;2022-07-23T09:36:42;29.80;99.90
16995;DHT22;8614;48.522;9.206;2022-07-23T09:39:10;29.80;99.90
16995;DHT22;8614;48.522;9.206;2022-07-23T09:41:39;30.00;99.90
16995;DHT22;8614;48.522;9.206;2022-07-23T09:44:12;30.10;99.90
16995;DHT22;8614;48.522;9.206;2022-07-23T09:46:40;30.30;99.90
16995;DHT22;8614;48.522;9.206;2022-07-23T09:49:13;30.40;99.90
16995;DHT22;8614;48.522;9.206;2022-07-23T09:51:45;30.70;99.90
16995;DHT22;8614;48.522;9.206;2022-07-23T09:54:30;30.60;99.90
16995;DHT22;8614;48.522;9.206;2022-07-23T09:57:00;30.70;99.90
16995;DHT22;8614;48.522;9.206;2022-07-23T09:59:34;30.90;99.90
16995;DHT22;8614;48.522;9.206;2022-07-23T10:02:02;31.10;99.90
16995;DHT22;8614;48.522;9.206;2022-07-23T10:04:37;31.10;99.90
16995;DHT22;8614;48.522;9.206;2022-07-23T10:07:17;31.20;99.90
16995;DHT22;8614;48.522;9.206;2022-07-23T10:10:03;30.70;99.90
16995;DHT22;8614;48.522;9.206;2022-07-23T10:12:49;30.90;99.90
16995;DHT22;8614;48.522;9.206;2022-07-23T10:15:41;30.40;99.90
16995;DHT22;8614;48.522;9.206;2022-07-23T10:18:10;30.40;99.90
16995;DHT22;8614;48.522;9.206;2022-07-23T10:20:38;30.20;99.90
16995;DHT22;8614;48.522;9.206;2022-07-23T10:23:13;29.90;99.90
16995;DHT22;8614;48.522;9.206;2022-07-23T10:25:48;29.70;99.90
16995;DHT22;8614;48.522;9.206;2022-07-23T10:28:27;29.60;99.90
16995;DHT22;8614;48.522;9.206;2022-07-23T10:31:07;29.50;99.90
16995;DHT22;8614;48.522;9.206;2022-07-23T10:33:45;30.00;99.90
16995;DHT22;8614;48.522;9.206;2022-07-23T10:36:19;30.00;99.90
16995;DHT22;8614;48.522;9.206;2022-07-23T10:38:52;30.00;99.90
16995;DHT22;8614;48.522;9.206;2022-07-23T10:41:31;30.00;99.90
16995;DHT22;8614;48.522;9.206;2022-07-23T10:44:10;29.90;99.90
16995;DHT22;8614;48.522;9.206;2022-07-23T10:46:54;30.00;99.90
16995;DHT22;8614;48.522;9.206;2022-07-23T10:49:27;30.00;99.90
16995;DHT22;8614;48.522;9.206;2022-07-23T10:52:28;29.70;99.90
16995;DHT22;8614;48.522;9.206;2022-07-23T10:54:56;29.50;99.90
16995;DHT22;8614;48.522;9.206;2022-07-23T10:57:49;29.30;99.90
16995;DHT22;8614;48.522;9.206;2022-07-23T11:00:21;29.40;99.90
16995;DHT22;8614;48.522;9.206;2022-07-23T11:02:49;29.70;99.90
16995;DHT22;8614;48.522;9.206;2022-07-23T11:05:18;29.50;99.90
16995;DHT22;8614;48.522;9.206;2022-07-23T11:08:11;29.40;99.90
16995;DHT22;8614;48.522;9.206;2022-07-23T11:10:42;29.60;99.90
16995;DHT22;8614;48.522;9.206;2022-07-23T11:13:30;29.70;99.90
16995;DHT22;8614;48.522;9.206;2022-07-23T11:16:08;29.80;99.90
16995;DHT22;8614;48.522;9.206;2022-07-23T11:19:05;30.00;99.90
16995;DHT22;8614;48.522;9.206;2022-07-23T11:21:46;29.90;99.90
16995;DHT22;8614;48.522;9.206;2022-07-23T11:24:17;29.80;99.90
16995;DHT22;8614;48.522;9.206;2022-07-23T11:26:47;30.10;99.90
16995;DHT22;8614;48.522;9.206;2022-07-23T11:29:47;30.20;99.90
16995;DHT22;8614;48.522;9.206;2022-07-23T11:32:32;29.90;99.90
16995;DHT22;8614;48.522;9.206;2022-07-23T11:35:01;29.70;99.90
16995;DHT22;8614;48.522;9.206;2022-07-23T11:37:32;29.70;99.90
16995;DHT22;8614;48.522;9.206;2022-07-23T11:40:00;29.60;99.90
16995;DHT22;8614;48.522;9.206;2022-07-23T11:42:27;29.50;99.90
16995;DHT22;8614;48.522;9.206;2022-07-23T11:44:55;29.30;99.90
16995;DHT22;8614;48.522;9.206;2022-07-23T11:47:23;29.50;99.90
16995;DHT22;8614;48.522;9.206;2022-07-23T11:49:54;29.70;99.90
16995;DHT22;8614;48.522;9.206;2022-07-23T11:52:22;29.90;99.90
16995;DHT22;8614;48.522;9.206;2022-07-23T11:54:51;30.00;99.90
16995;DHT22;8614;48.522;9.206;2022-07-23T11:57:19;30.00;99.90
16995;DHT22;8614;48.522;9.206;2022-07-23T11:59:50;30.10;99.90
16995;DHT22;8614;48.522;9.206;2022-07-23T12:02:19;30.20;99.90
16995;DHT22;8614;48.522;9.206;2022-07-23T12:04:48;30.20;99.90
16995;DHT22;8614;48.522;9.206;2022-07-23T12:07:29;30.20;99.90
16995;DHT22;8614;48.522;9.206;2022-07-23T12:09:58;30.10;99.90
16995;DHT22;8614;48.522;9.206;2022-07-23T12:12:26;30.00;99.90
16995;DHT22;8614;48.522;9.206;2022-07-23T12:14:55;30.10;99.90
16995;DHT22;8614;48.522;9.206;2022-07-23T12:17:29;30.00;99.90
16995;DHT22;8614;48.522;9.206;2022-07-23T12:19:57;30.10;99.90
16995;DHT22;8614;48.522;9.206;2022-07-23T12:22:33;30.30;99.90
16995;DHT22;8614;48.522;9.206;2022-07-23T12:25:01;30.30;99.80
16995;DHT22;8614;48.522;9.206;2022-07-23T12:27:30;30.40;99.90
16995;DHT22;8614;48.522;9.206;2022-07-23T12:29:57;30.30;99.90
16995;DHT22;8614;48.522;9.206;2022-07-23T12:32:25;30.20;99.10
16995;DHT22;8614;48.522;9.206;2022-07-23T12:35:05;30.20;99.50
16995;DHT22;8614;48.522;9.206;2022-07-23T12:37:33;30.30;99.90
16995;DHT22;8614;48.522;9.206;2022-07-23T12:40:22;30.10;99.90
16995;DHT22;8614;48.522;9.206;2022-07-23T12:42:50;29.80;99.90
16995;DHT22;8614;48.522;9.206;2022-07-23T12:45:18;29.60;99.90
16995;DHT22;8614;48.522;9.206;2022-07-23T12:48:05;29.60;99.90
16995;DHT22;8614;48.522;9.206;2022-07-23T12:50:42;29.40;99.90
16995;DHT22;8614;48.522;9.206;2022-07-23T12:53:13;29.20;99.90
16995;DHT22;8614;48.522;9.206;2022-07-23T12:55:42;29.30;99.90
16995;DHT22;8614;48.522;9.206;2022-07-23T12:58:11;29.20;99.90
16995;DHT22;8614;48.522;9.206;2022-07-23T13:01:03;29.10;99.90
16995;DHT22;8614;48.522;9.206;2022-07-23T13:03:36;29.00;99.90
16995;DHT22;8614;48.522;9.206;2022-07-23T13:06:06;29.00;99.90
16995;DHT22;8614;48.522;9.206;2022-07-23T13:08:35;29.20;99.90
16995;DHT22;8614;48.522;9.206;2022-07-23T13:11:03;29.30;99.90
16995;DHT22;8614;48.522;9.206;2022-07-23T13:13:32;29.00;99.90
16995;DHT22;8614;48.522;9.206;2022-07-23T13:15:59;29.00;99.90
16995;DHT22;8614;48.522;9.206;2022-07-23T13:18:27;29.20;99.90
16995;DHT22;8614;48.522;9.206;2022-07-23T13:20:55;29.40;99.80
16995;DHT22;8614;48.522;9.206;2022-07-23T13:23:24;29.40;99.90
16995;DHT22;8614;48.522;9.206;2022-07-23T13:25:50;29.30;99.70
16995;DHT22;8614;48.522;9.206;2022-07-23T13:28:19;29.30;99.90
16995;DHT22;8614;48.522;9.206;2022-07-23T13:30:47;29.30;99.90
16995;DHT22;8614;48.522;9.206;2022-07-23T13:33:15;29.50;99.90
16995;DHT22;8614;48.522;9.206;2022-07-23T13:35:42;29.70;99.90
16995;DHT22;8614;48.522;9.206;2022-07-23T13:38:10;29.80;97.80
16995;DHT22;8614;48.522;9.206;2022-07-23T13:40:40;29.90;99.10
16995;DHT22;8614;48.522;9.206;2022-07-23T13:43:08;30.10;99.30
16995;DHT22;8614;48.522;9.206;2022-07-23T13:45:35;30.10;98.70
16995;DHT22;8614;48.522;9.206;2022-07-23T13:48:03;29.70;98.90
16995;DHT22;8614;48.522;9.206;2022-07-23T13:50:30;29.40;98.70
16995;DHT22;8614;48.522;9.206;2022-07-23T13:53:00;29.00;99.40
16995;DHT22;8614;48.522;9.206;2022-07-23T13:55:27;29.00;99.80
16995;DHT22;8614;48.522;9.206;2022-07-23T13:57:55;28.80;99.80
16995;DHT22;8614;48.522;9.206;2022-07-23T14:00:22;28.60;99.90
16995;DHT22;8614;48.522;9.206;2022-07-23T14:02:49;28.40;99.90
16995;DHT22;8614;48.522;9.206;2022-07-23T14:05:16;28.30;99.90
16995;DHT22;8614;48.522;9.206;2022-07-23T14:07:43;28.10;99.90
16995;DHT22;8614;48.522;9.206;2022-07-23T14:10:12;27.90;99.90
16995;DHT22;8614;48.522;9.206;2022-07-23T14:12:39;27.80;99.90
16995;DHT22;8614;48.522;9.206;2022-07-23T14:15:08;27.70;99.90
16995;DHT22;8614;48.522;9.206;2022-07-23T14:17:36;27.70;99.90
16995;DHT22;8614;48.522;9.206;2022-07-23T14:20:04;27.70;99.90
16995;DHT22;8614;48.522;9.206;2022-07-23T14:22:31;27.80;99.90
16995;DHT22;8614;48.522;9.206;2022-07-23T14:24:57;27.80;99.90
16995;DHT22;8614;48.522;9.206;2022-07-23T14:27:25;27.90;99.90
16995;DHT22;8614;48.522;9.206;2022-07-23T14:29:52;28.20;99.90
16995;DHT22;8614;48.522;9.206;2022-07-23T14:32:20;28.30;99.90
16995;DHT22;8614;48.522;9.206;2022-07-23T14:34:48;28.60;99.90
16995;DHT22;8614;48.522;9.206;2022-07-23T14:37:15;28.60;99.90
16995;DHT22;8614;48.522;9.206;2022-07-23T14:39:42;28.80;99.90
16995;DHT22;8614;48.522;9.206;2022-07-23T14:42:10;28.90;99.90
16995;DHT22;8614;48.522;9.206;2022-07-23T14:44:37;28.80;99.90
16995;DHT22;8614;48.522;9.206;2022-07-23T14:47:04;28.70;99.90
16995;DHT22;8614;48.522;9.206;2022-07-23T14:49:33;28.70;99.90
16995;DHT22;8614;48.522;9.206;2022-07-23T14:52:01;28.60;99.90
16995;DHT22;8614;48.522;9.206;2022-07-23T14:54:28;28.80;99.90
16995;DHT22;8614;48.522;9.206;2022-07-23T14:56:56;28.90;99.90
16995;DHT22;8614;48.522;9.206;2022-07-23T14:59:23;29.00;99.90
16995;DHT22;8614;48.522;9.206;2022-07-23T15:01:51;29.10;99.90
16995;DHT22;8614;48.522;9.206;2022-07-23T15:04:18;29.10;99.90
16995;DHT22;8614;48.522;9.206;2022-07-23T15:06:46;29.00;99.90
16995;DHT22;8614;48.522;9.206;2022-07-23T15:09:13;29.00;99.90
16995;DHT22;8614;48.522;9.206;2022-07-23T15:11:40;29.10;99.90
16995;DHT22;8614;48.522;9.206;2022-07-23T15:14:08;29.00;99.70
16995;DHT22;8614;48.522;9.206;2022-07-23T15:16:35;28.80;99.90
16995;DHT22;8614;48.522;9.206;2022-07-23T15:19:03;28.80;99.90
16995;DHT22;8614;48.522;9.206;2022-07-23T15:21:30;28.80;99.90
16995;DHT22;8614;48.522;9.206;2022-07-23T15:23:58;28.80;99.60
16995;DHT22;8614;48.522;9.206;2022-07-23T15:26:26;28.70;99.90
16995;DHT22;8614;48.522;9.206;2022-07-23T15:28:53;28.70;99.50
16995;DHT22;8614;48.522;9.206;2022-07-23T15:31:20;28.80;99.90
16995;DHT22;8614;48.522;9.206;2022-07-23T15:33:47;28.80;99.90
16995;DHT22;8614;48.522;9.206;2022-07-23T15:36:16;28.70;99.60
16995;DHT22;8614;48.522;9.206;2022-07-23T15:38:43;28.70;99.50
16995;DHT22;8614;48.522;9.206;2022-07-23T15:41:11;28.70;99.20
16995;DHT22;8614;48.522;9.206;2022-07-23T15:43:38;28.70;99.40
16995;DHT22;8614;48.522;9.206;2022-07-23T15:46:05;28.60;99.90
16995;DHT22;8614;48.522;9.206;2022-07-23T15:48:35;28.60;99.90
16995;DHT22;8614;48.522;9.206;2022-07-23T15:51:02;28.40;99.50
16995;DHT22;8614;48.522;9.206;2022-07-23T15:53:29;28.30;99.90
16995;DHT22;8614;48.522;9.206;2022-07-23T15:55:56;28.40;99.90
16995;DHT22;8614;48.522;9.206;2022-07-23T15:58:24;28.30;99.70